createdAt,value
2019-03-21T00:00:12.548Z,10.30
2019-03-21T00:02:42.504Z,10.10
2019-03-21T00:05:10.771Z,12.10
2019-03-21T00:07:38.763Z,6.70
2019-03-21T00:10:22.832Z,8.07
2019-03-21T00:12:50.659Z,12.50
2019-03-21T00:15:25.811Z,5.30
2019-03-21T00:18:00.918Z,5.40
2019-03-21T00:20:28.908Z,7.67
2019-03-21T00:22:56.775Z,6.67
2019-03-21T00:25:24.681Z,10.90
2019-03-21T00:27:52.523Z,9.67
2019-03-21T00:30:21.455Z,13.70
2019-03-21T00:32:49.407Z,10.27
2019-03-21T00:35:17.587Z,12.47
2019-03-21T00:37:45.722Z,11.53
2019-03-21T00:40:16.193Z,29.93
2019-03-21T00:42:44.169Z,21.60
2019-03-21T00:45:14.427Z,18.87
2019-03-21T00:47:42.456Z,11.47
2019-03-21T00:50:12.417Z,14.90
2019-03-21T00:52:40.524Z,15.77
2019-03-21T00:55:09.701Z,12.97
2019-03-21T00:57:37.706Z,12.17
2019-03-21T01:00:07.312Z,13.63
2019-03-21T01:02:35.296Z,21.30
2019-03-21T01:05:03.674Z,16.33
2019-03-21T01:07:32.220Z,14.47
2019-03-21T01:10:00.306Z,14.00
2019-03-21T01:12:28.402Z,9.40
2019-03-21T01:14:56.113Z,9.67
2019-03-21T01:17:24.115Z,8.07
2019-03-21T01:19:51.836Z,8.53
2019-03-21T01:22:19.878Z,6.70
2019-03-21T01:24:47.864Z,9.33
2019-03-21T01:27:15.903Z,9.60
2019-03-21T01:29:43.667Z,11.20
2019-03-21T01:32:11.510Z,7.43
2019-03-21T01:34:39.410Z,7.43
2019-03-21T01:37:07.412Z,7.10
2019-03-21T01:39:35.829Z,8.27
2019-03-21T01:42:03.801Z,7.00
2019-03-21T01:44:40.489Z,7.33
2019-03-21T01:47:03.637Z,8.67
2019-03-21T01:49:31.533Z,9.23
2019-03-21T01:51:59.732Z,6.40
2019-03-21T01:54:27.720Z,7.87
2019-03-21T01:56:55.758Z,10.97
2019-03-21T01:59:23.627Z,12.17
2019-03-21T02:01:51.484Z,19.23
2019-03-21T02:04:19.375Z,16.50
2019-03-21T02:06:47.777Z,17.77
2019-03-21T02:09:15.615Z,18.47
2019-03-21T02:11:43.895Z,18.47
2019-03-21T02:14:11.922Z,18.33
2019-03-21T02:16:39.933Z,17.50
2019-03-21T02:19:07.934Z,12.40
2019-03-21T02:21:35.818Z,10.77
2019-03-21T02:24:05.171Z,12.47
2019-03-21T02:26:33.300Z,12.63
2019-03-21T02:29:01.528Z,12.47
2019-03-21T02:31:29.993Z,10.43
2019-03-21T02:33:57.956Z,7.70
2019-03-21T02:36:26.341Z,12.50
2019-03-21T02:38:55.172Z,8.80
2019-03-21T02:41:25.499Z,10.77
2019-03-21T02:43:53.070Z,8.23
2019-03-21T02:46:20.950Z,7.43
2019-03-21T02:48:48.903Z,9.63
2019-03-21T02:51:17.018Z,8.30
2019-03-21T02:53:44.660Z,8.30
2019-03-21T02:56:14.128Z,8.97
2019-03-21T02:58:41.956Z,8.57
2019-03-21T03:01:11.011Z,10.07
2019-03-21T03:03:39.358Z,4.47
2019-03-21T03:06:07.317Z,8.03
2019-03-21T03:08:35.219Z,6.40
2019-03-21T03:11:03.660Z,5.90
2019-03-21T03:13:31.677Z,4.67
2019-03-21T03:15:59.657Z,10.87
2019-03-21T03:18:27.984Z,7.97
2019-03-21T03:20:55.891Z,8.07
2019-03-21T03:23:23.903Z,11.53
2019-03-21T03:25:51.800Z,6.83
2019-03-21T03:28:21.453Z,5.13
2019-03-21T03:30:49.775Z,9.23
2019-03-21T03:33:17.876Z,11.27
2019-03-21T03:35:47.105Z,8.03
2019-03-21T03:38:15.149Z,10.23
2019-03-21T03:40:45.375Z,11.90
2019-03-21T03:43:13.313Z,9.90
2019-03-21T03:45:41.536Z,17.27
2019-03-21T03:48:09.451Z,13.80
2019-03-21T03:50:37.767Z,13.50
2019-03-21T03:53:05.627Z,12.70
2019-03-21T03:55:33.636Z,12.77
2019-03-21T03:58:03.137Z,11.80
2019-03-21T04:00:31.347Z,15.50
2019-03-21T04:02:59.199Z,15.07
2019-03-21T04:05:27.458Z,12.80
2019-03-21T04:07:55.478Z,15.97
2019-03-21T04:10:28.920Z,12.00
2019-03-21T04:12:56.881Z,13.13
2019-03-21T04:15:25.353Z,12.90
2019-03-21T04:17:53.330Z,15.67
2019-03-21T04:20:23.748Z,11.73
2019-03-21T04:22:51.623Z,10.23
2019-03-21T04:25:22.618Z,12.47
2019-03-21T04:27:50.961Z,7.03
2019-03-21T04:30:18.849Z,9.87
2019-03-21T04:32:46.869Z,8.90
2019-03-21T04:35:14.835Z,11.90
2019-03-21T04:37:42.837Z,11.47
2019-03-21T04:40:11.699Z,9.53
2019-03-21T04:42:39.749Z,9.53
2019-03-21T04:45:13.437Z,10.43
2019-03-21T04:47:42.567Z,19.67
2019-03-21T04:50:13.301Z,12.57
2019-03-21T04:52:41.631Z,16.23
2019-03-21T04:55:10.555Z,21.13
2019-03-21T04:57:38.406Z,22.83
2019-03-21T05:00:10.412Z,25.97
2019-03-21T05:02:38.195Z,20.60
2019-03-21T05:05:07.219Z,14.00
2019-03-21T05:07:35.665Z,14.73
2019-03-21T05:10:04.726Z,12.67
2019-03-21T05:12:32.713Z,11.30
2019-03-21T05:15:00.459Z,9.60
2019-03-21T05:17:28.349Z,11.90
2019-03-21T05:19:56.271Z,9.03
2019-03-21T05:22:24.231Z,14.03
2019-03-21T05:24:53.396Z,12.03
2019-03-21T05:27:21.234Z,11.03
2019-03-21T05:29:49.188Z,12.17
2019-03-21T05:32:17.089Z,11.83
2019-03-21T05:34:45.083Z,9.03
2019-03-21T05:37:13.038Z,10.73
2019-03-21T05:39:41.096Z,14.57
2019-03-21T05:42:13.610Z,13.90
2019-03-21T05:44:42.667Z,14.27
2019-03-21T05:47:10.543Z,13.37
2019-03-21T05:49:38.805Z,12.67
2019-03-21T05:52:08.380Z,10.40
2019-03-21T05:54:36.119Z,13.97
2019-03-21T05:57:04.097Z,11.63
2019-03-21T05:59:31.994Z,13.23
2019-03-21T06:02:00.187Z,13.23
2019-03-21T06:04:28.248Z,14.43
2019-03-21T06:07:46.523Z,12.83
2019-03-21T06:10:15.610Z,10.27
2019-03-21T06:12:43.842Z,13.33
2019-03-21T06:15:12.814Z,11.67
2019-03-21T06:17:40.854Z,11.93
2019-03-21T06:20:50.510Z,12.37
2019-03-21T06:23:35.237Z,10.27
2019-03-21T06:26:19.406Z,14.53
2019-03-21T06:28:47.355Z,14.67
2019-03-21T06:31:15.774Z,10.87
2019-03-21T06:33:44.009Z,10.30
2019-03-21T06:36:12.029Z,8.40
2019-03-21T06:38:40.010Z,9.00
2019-03-21T06:41:07.880Z,10.10
2019-03-21T06:43:35.853Z,12.17
2019-03-21T06:46:03.769Z,12.03
2019-03-21T06:48:31.684Z,12.37
2019-03-21T06:51:00.339Z,18.13
2019-03-21T06:53:28.341Z,14.47
2019-03-21T06:55:56.830Z,20.43
2019-03-21T06:58:24.970Z,12.20
2019-03-21T07:00:52.827Z,16.30
2019-03-21T07:03:21.004Z,14.67
2019-03-21T07:05:49.354Z,9.67
2019-03-21T07:08:17.361Z,11.00
2019-03-21T07:10:45.789Z,14.30
2019-03-21T07:13:14.087Z,11.30
2019-03-21T07:15:42.578Z,14.00
2019-03-21T07:18:11.159Z,15.10
2019-03-21T07:20:41.382Z,16.07
2019-03-21T07:23:09.557Z,13.30
2019-03-21T07:25:39.778Z,14.43
2019-03-21T07:28:08.190Z,13.23
2019-03-21T07:30:36.312Z,11.87
2019-03-21T07:33:04.869Z,12.80
2019-03-21T07:35:33.244Z,12.33
2019-03-21T07:38:01.153Z,11.13
2019-03-21T07:40:28.993Z,18.10
2019-03-21T07:42:57.046Z,11.37
2019-03-21T07:45:24.938Z,12.07
2019-03-21T07:47:53.402Z,11.70
2019-03-21T07:50:21.268Z,12.10
2019-03-21T07:52:49.119Z,10.67
2019-03-21T07:55:17.088Z,11.17
2019-03-21T07:57:45.018Z,13.40
2019-03-21T08:00:13.670Z,8.47
2019-03-21T08:02:41.867Z,9.70
2019-03-21T08:05:10.255Z,11.73
2019-03-21T08:07:38.077Z,8.50
2019-03-21T08:10:06.267Z,8.27
2019-03-21T08:12:34.145Z,8.67
2019-03-21T08:15:02.172Z,8.40
2019-03-21T08:17:30.064Z,13.70
2019-03-21T08:19:57.952Z,6.13
2019-03-21T08:22:25.908Z,7.17
2019-03-21T08:24:53.893Z,8.40
2019-03-21T08:27:21.889Z,5.20
2019-03-21T08:29:49.775Z,9.23
2019-03-21T08:32:19.321Z,9.37
2019-03-21T08:34:47.182Z,8.73
2019-03-21T08:37:15.213Z,8.07
2019-03-21T08:39:43.196Z,6.80
2019-03-21T08:42:11.626Z,10.00
2019-03-21T08:44:40.038Z,7.27
2019-03-21T08:47:09.840Z,9.20
2019-03-21T08:49:37.712Z,7.47
2019-03-21T08:52:07.688Z,7.60
2019-03-21T08:54:35.759Z,6.97
2019-03-21T08:57:04.020Z,8.20
2019-03-21T08:59:32.380Z,11.57
2019-03-21T09:02:00.718Z,5.67
2019-03-21T09:04:28.667Z,5.40
2019-03-21T09:06:56.718Z,8.37
2019-03-21T09:09:24.684Z,10.67
2019-03-21T09:11:52.299Z,8.63
2019-03-21T09:14:20.305Z,9.10
2019-03-21T09:16:48.051Z,8.40
2019-03-21T09:19:16.032Z,6.00
2019-03-21T09:21:43.998Z,12.53
2019-03-21T09:24:11.872Z,12.97
2019-03-21T09:26:40.233Z,10.47
2019-03-21T09:29:08.045Z,9.57
2019-03-21T09:31:35.884Z,10.53
2019-03-21T09:34:03.905Z,12.70
2019-03-21T09:36:32.046Z,14.40
2019-03-21T09:39:00.330Z,6.17
2019-03-21T09:41:28.200Z,8.37
2019-03-21T09:43:56.204Z,11.97
2019-03-21T09:46:25.645Z,9.67
2019-03-21T09:48:53.884Z,16.67
2019-03-21T09:51:30.478Z,7.40
2019-03-21T09:53:52.423Z,8.30
2019-03-21T09:56:20.431Z,11.07
2019-03-21T09:58:48.643Z,7.47
2019-03-21T10:01:16.538Z,8.43
2019-03-21T10:03:44.843Z,10.60
2019-03-21T10:06:12.829Z,11.17
2019-03-21T10:08:40.784Z,10.43
2019-03-21T10:11:08.661Z,9.90
2019-03-21T10:13:36.556Z,9.53
2019-03-21T10:16:04.477Z,9.70
2019-03-21T10:18:32.416Z,12.77
2019-03-21T10:21:00.317Z,10.43
2019-03-21T10:23:28.046Z,11.23
2019-03-21T10:25:56.016Z,7.30
2019-03-21T10:28:23.983Z,11.33
2019-03-21T10:30:51.872Z,7.77
2019-03-21T10:33:19.953Z,17.83
2019-03-21T10:35:47.810Z,8.67
2019-03-21T10:38:15.754Z,8.20
2019-03-21T10:40:43.569Z,15.27
2019-03-21T10:43:11.540Z,9.43
2019-03-21T10:45:39.404Z,10.60
2019-03-21T10:48:07.480Z,10.13
2019-03-21T10:50:37.126Z,9.93
2019-03-21T10:53:06.325Z,11.13
2019-03-21T10:55:34.811Z,9.57
2019-03-21T10:58:03.003Z,16.57
2019-03-21T11:00:32.157Z,12.67
2019-03-21T11:03:00.175Z,8.53
2019-03-21T11:05:29.171Z,7.70
2019-03-21T11:07:57.154Z,11.83
2019-03-21T11:10:25.327Z,16.33
2019-03-21T11:12:53.397Z,9.63
2019-03-21T11:15:21.411Z,10.47
2019-03-21T11:17:49.957Z,8.47
2019-03-21T11:20:29.119Z,11.07
2019-03-21T11:22:56.962Z,9.37
2019-03-21T11:25:24.869Z,13.07
2019-03-21T11:27:52.704Z,14.83
2019-03-21T11:30:28.160Z,9.67
2019-03-21T11:32:56.348Z,10.07
2019-03-21T11:35:24.486Z,8.57
2019-03-21T11:37:52.501Z,12.07
2019-03-21T11:40:20.472Z,8.47
2019-03-21T11:42:48.473Z,8.10
2019-03-21T11:45:16.513Z,11.30
2019-03-21T11:47:44.806Z,9.03
2019-03-21T11:50:13.134Z,10.57
2019-03-21T11:52:41.413Z,6.93
2019-03-21T11:55:10.351Z,8.37
2019-03-21T11:57:39.295Z,7.80
2019-03-21T12:00:07.508Z,8.77
2019-03-21T12:02:35.354Z,6.63
2019-03-21T12:05:03.602Z,13.57
2019-03-21T12:07:31.697Z,8.37
2019-03-21T12:09:59.561Z,12.17
2019-03-21T12:12:27.604Z,9.17
2019-03-21T12:14:55.478Z,12.27
2019-03-21T12:17:23.463Z,9.23
2019-03-21T12:19:51.326Z,11.60
2019-03-21T12:22:29.420Z,12.07
2019-03-21T12:24:49.358Z,8.80
2019-03-21T12:27:17.256Z,10.13
2019-03-21T12:29:45.384Z,11.73
2019-03-21T12:32:13.479Z,8.77
2019-03-21T12:34:41.637Z,13.57
2019-03-21T12:37:09.612Z,10.70
2019-03-21T12:39:37.648Z,10.63
2019-03-21T12:42:05.638Z,11.00
2019-03-21T12:44:33.501Z,6.90
2019-03-21T12:47:01.399Z,12.23
2019-03-21T12:49:29.423Z,8.90
2019-03-21T12:51:57.489Z,8.83
2019-03-21T12:54:25.595Z,8.93
2019-03-21T12:56:53.660Z,9.20
2019-03-21T12:59:22.031Z,13.53
2019-03-21T13:01:50.217Z,6.63
2019-03-21T13:04:18.140Z,6.37
2019-03-21T13:06:46.249Z,7.50
2019-03-21T13:09:14.289Z,8.23
2019-03-21T13:11:42.607Z,6.83
2019-03-21T13:14:10.504Z,7.67
2019-03-21T13:16:38.471Z,5.70
2019-03-21T13:19:06.365Z,10.30
2019-03-21T13:21:34.287Z,6.47
2019-03-21T13:24:02.106Z,8.93
2019-03-21T13:26:30.140Z,7.53
2019-03-21T13:28:58.088Z,6.37
2019-03-21T13:31:25.913Z,5.90
2019-03-21T13:33:53.938Z,7.20
2019-03-21T13:36:21.929Z,9.40
2019-03-21T13:38:49.718Z,6.60
2019-03-21T13:41:17.725Z,4.90
2019-03-21T13:43:45.605Z,7.20
2019-03-21T13:46:13.381Z,10.90
2019-03-21T13:48:41.428Z,6.70
2019-03-21T13:51:09.586Z,6.50
2019-03-21T13:53:37.586Z,7.90
2019-03-21T13:56:05.307Z,9.40
2019-03-21T13:58:33.342Z,7.30
2019-03-21T14:01:01.152Z,9.80
2019-03-21T14:03:29.137Z,7.07
2019-03-21T14:05:57.172Z,4.97
2019-03-21T14:08:25.071Z,6.50
2019-03-21T14:10:53.072Z,9.07
2019-03-21T14:13:21.009Z,12.10
2019-03-21T14:15:49.013Z,9.63
2019-03-21T14:18:17.007Z,8.47
2019-03-21T14:20:45.317Z,7.53
2019-03-21T14:23:17.354Z,10.57
2019-03-21T14:25:43.544Z,11.07
2019-03-21T14:28:12.936Z,8.20
2019-03-21T14:30:40.937Z,6.83
2019-03-21T14:33:08.943Z,10.17
2019-03-21T14:35:36.863Z,16.67
2019-03-21T14:38:04.898Z,8.07
2019-03-21T14:40:32.883Z,10.37
2019-03-21T14:43:00.782Z,10.73
2019-03-21T14:45:28.964Z,10.37
2019-03-21T14:47:56.989Z,7.23
2019-03-21T14:50:25.018Z,11.13
2019-03-21T14:52:52.767Z,8.80
2019-03-21T14:55:21.102Z,10.10
2019-03-21T14:57:49.218Z,9.93
2019-03-21T15:00:17.708Z,8.73
2019-03-21T15:02:46.036Z,7.27
2019-03-21T15:05:14.899Z,9.77
2019-03-21T15:07:43.040Z,8.63
2019-03-21T15:10:11.542Z,8.07
2019-03-21T15:12:39.765Z,5.97
2019-03-21T15:15:08.726Z,10.80
2019-03-21T15:17:36.932Z,6.73
2019-03-21T15:20:07.102Z,10.17
2019-03-21T15:22:35.834Z,9.47
2019-03-21T15:25:04.837Z,7.83
2019-03-21T15:27:33.206Z,7.77
2019-03-21T15:30:01.921Z,5.10
2019-03-21T15:32:30.240Z,7.37
2019-03-21T15:34:58.294Z,6.80
2019-03-21T15:37:26.874Z,7.00
2019-03-21T15:39:55.279Z,4.10
2019-03-21T15:42:23.506Z,6.30
2019-03-21T15:44:52.759Z,9.90
2019-03-21T15:47:20.830Z,6.80
2019-03-21T15:49:48.959Z,8.83
2019-03-21T15:52:17.155Z,8.20
2019-03-21T15:54:45.256Z,7.20
2019-03-21T15:57:13.547Z,5.80
2019-03-21T15:59:41.673Z,4.43
2019-03-21T16:02:10.212Z,5.50
2019-03-21T16:04:38.665Z,8.30
2019-03-21T16:07:07.152Z,10.93
2019-03-21T16:09:35.619Z,11.43
2019-03-21T16:12:03.927Z,5.67
2019-03-21T16:14:32.295Z,5.33
2019-03-21T16:17:00.398Z,7.33
2019-03-21T16:19:28.654Z,8.40
2019-03-21T16:21:57.155Z,6.10
2019-03-21T16:24:25.467Z,4.90
2019-03-21T16:26:53.862Z,7.60
2019-03-21T16:29:22.039Z,5.27
2019-03-21T16:31:50.283Z,6.13
2019-03-21T16:34:19.205Z,3.63
2019-03-21T16:36:47.595Z,6.20
2019-03-21T16:39:15.804Z,6.40
2019-03-21T16:41:44.092Z,6.30
2019-03-21T16:44:12.503Z,9.33
2019-03-21T16:46:40.850Z,8.70
2019-03-21T16:49:09.078Z,9.17
2019-03-21T16:51:37.319Z,5.03
2019-03-21T16:54:16.595Z,5.80
2019-03-21T16:56:35.634Z,4.37
2019-03-21T16:59:03.913Z,4.57
2019-03-21T17:01:31.999Z,4.53
2019-03-21T17:04:00.266Z,8.43
2019-03-21T17:06:28.449Z,8.40
2019-03-21T17:08:57.936Z,6.27
2019-03-21T17:11:26.077Z,4.93
2019-03-21T17:13:54.330Z,5.27
2019-03-21T17:16:22.739Z,6.50
2019-03-21T17:18:51.428Z,7.10
2019-03-21T17:21:19.783Z,9.70
2019-03-21T17:23:48.047Z,6.67
2019-03-21T17:26:16.246Z,6.17
2019-03-21T17:28:44.681Z,6.43
2019-03-21T17:31:12.736Z,7.70
2019-03-21T17:33:42.093Z,6.30
2019-03-21T17:36:10.282Z,5.60
2019-03-21T17:38:38.434Z,7.20
2019-03-21T17:41:07.183Z,5.73
2019-03-21T17:43:35.759Z,4.97
2019-03-21T17:46:04.089Z,5.20
2019-03-21T17:48:33.626Z,6.77
2019-03-21T17:51:02.947Z,6.43
2019-03-21T17:53:33.164Z,7.07
2019-03-21T17:56:01.290Z,7.13
2019-03-21T17:58:29.502Z,5.20
2019-03-21T18:00:57.885Z,11.20
2019-03-21T18:03:26.324Z,4.80
2019-03-21T18:05:55.603Z,11.90
2019-03-21T18:08:23.667Z,8.00
2019-03-21T18:10:51.861Z,11.40
2019-03-21T18:13:19.853Z,13.97
2019-03-21T18:15:47.755Z,7.23
2019-03-21T18:18:15.993Z,10.10
2019-03-21T18:20:43.993Z,10.47
2019-03-21T18:23:12.000Z,12.77
2019-03-21T18:25:40.010Z,10.97
2019-03-21T18:28:08.924Z,10.33
2019-03-21T18:30:37.163Z,11.50
2019-03-21T18:33:05.284Z,12.10
2019-03-21T18:35:33.165Z,9.97
2019-03-21T18:38:01.193Z,9.67
2019-03-21T18:40:29.551Z,11.90
2019-03-21T18:42:57.428Z,14.23
2019-03-21T18:45:25.394Z,11.47
2019-03-21T18:47:53.574Z,10.43
2019-03-21T18:50:21.634Z,10.83
2019-03-21T18:52:50.227Z,13.93
2019-03-21T18:55:18.423Z,10.57
2019-03-21T18:57:46.677Z,12.97
2019-03-21T19:00:15.519Z,14.80
2019-03-21T19:02:43.747Z,13.13
2019-03-21T19:05:11.884Z,11.33
2019-03-21T19:07:39.934Z,12.43
2019-03-21T19:10:10.219Z,17.00
2019-03-21T19:12:38.161Z,13.03
2019-03-21T19:15:07.796Z,13.00
2019-03-21T19:17:36.950Z,14.80
2019-03-21T19:20:06.376Z,20.73
2019-03-21T19:22:34.464Z,18.73
2019-03-21T19:25:02.401Z,16.93
2019-03-21T19:27:31.533Z,19.20
2019-03-21T19:29:59.948Z,19.97
2019-03-21T19:32:27.820Z,15.87
2019-03-21T19:34:55.850Z,16.07
2019-03-21T19:37:24.015Z,14.10
2019-03-21T19:39:51.988Z,15.20
2019-03-21T19:42:21.173Z,14.83
2019-03-21T19:44:49.122Z,20.03
2019-03-21T19:47:24.294Z,17.97
2019-03-21T19:49:46.763Z,21.20
2019-03-21T19:52:14.880Z,16.77
2019-03-21T19:54:42.854Z,14.47
2019-03-21T19:57:10.909Z,14.17
2019-03-21T19:59:40.739Z,13.53
2019-03-21T20:02:08.525Z,17.40
2019-03-21T20:04:36.444Z,12.97
2019-03-21T20:07:04.224Z,13.33
2019-03-21T20:09:32.118Z,11.20
2019-03-21T20:12:00.487Z,12.87
2019-03-21T20:14:29.801Z,12.20
2019-03-21T20:16:57.823Z,11.83
2019-03-21T20:19:26.003Z,16.97
2019-03-21T20:21:54.589Z,21.80
2019-03-21T20:24:23.179Z,21.33
2019-03-21T20:26:51.463Z,17.63
2019-03-21T20:29:19.256Z,18.73
2019-03-21T20:31:47.369Z,16.17
2019-03-21T20:34:15.292Z,19.03
2019-03-21T20:36:44.398Z,14.93
2019-03-21T20:39:12.296Z,10.90
2019-03-21T20:41:40.343Z,13.50
2019-03-21T20:44:15.140Z,11.50
2019-03-21T20:46:38.479Z,11.40
2019-03-21T20:49:06.624Z,12.57
2019-03-21T20:51:34.552Z,13.07
2019-03-21T20:54:02.581Z,13.83
2019-03-21T20:56:30.854Z,14.00
2019-03-21T20:58:58.764Z,17.83
2019-03-21T21:01:27.564Z,13.80
2019-03-21T21:03:55.947Z,16.40
2019-03-21T21:06:24.109Z,13.43
2019-03-21T21:08:52.684Z,18.60
2019-03-21T21:11:21.909Z,17.83
2019-03-21T21:13:50.240Z,22.37
2019-03-21T21:16:18.274Z,28.17
2019-03-21T21:18:46.311Z,19.00
2019-03-21T21:21:14.071Z,24.40
2019-03-21T21:23:42.109Z,29.87
2019-03-21T21:26:10.055Z,31.37
2019-03-21T21:28:38.109Z,33.53
2019-03-21T21:31:05.989Z,31.63
2019-03-21T21:33:34.234Z,23.27
2019-03-21T21:36:02.251Z,23.73
2019-03-21T21:38:30.214Z,22.70
2019-03-21T21:40:58.267Z,17.47
2019-03-21T21:43:26.443Z,13.23
2019-03-21T21:45:54.303Z,18.83
2019-03-21T21:48:22.038Z,14.57
2019-03-21T21:50:49.906Z,15.17
2019-03-21T21:53:17.894Z,25.73
2019-03-21T21:55:45.680Z,21.70
2019-03-21T21:58:13.559Z,16.20
2019-03-21T22:00:41.428Z,15.20
2019-03-21T22:03:09.326Z,15.23
2019-03-21T22:05:37.363Z,13.77
2019-03-21T22:08:05.789Z,13.17
2019-03-21T22:10:34.185Z,9.00
2019-03-21T22:13:02.093Z,11.47
2019-03-21T22:15:30.094Z,20.93
2019-03-21T22:17:58.253Z,12.63
2019-03-21T22:20:26.368Z,14.87
2019-03-21T22:22:54.589Z,16.13
2019-03-21T22:25:22.827Z,17.47
2019-03-21T22:27:50.894Z,13.93
2019-03-21T22:30:19.312Z,15.73
2019-03-21T22:32:47.352Z,13.40
2019-03-21T22:35:15.296Z,10.60
2019-03-21T22:37:43.355Z,13.87
2019-03-21T22:40:11.350Z,12.07
2019-03-21T22:42:40.366Z,12.23
2019-03-21T22:45:09.488Z,13.07
2019-03-21T22:47:37.333Z,12.40
2019-03-21T22:50:07.451Z,11.50
2019-03-21T22:52:35.431Z,11.33
2019-03-21T22:55:03.915Z,10.93
2019-03-21T22:57:31.793Z,12.50
2019-03-21T22:59:59.680Z,13.07
2019-03-21T23:02:27.728Z,12.93
2019-03-21T23:04:56.767Z,15.43
2019-03-21T23:07:24.854Z,18.43
2019-03-21T23:09:52.893Z,13.57
2019-03-21T23:12:20.748Z,13.63
2019-03-21T23:14:48.846Z,15.53
2019-03-21T23:17:16.973Z,14.50
2019-03-21T23:19:45.512Z,10.63
2019-03-21T23:22:13.475Z,9.90
2019-03-21T23:24:41.296Z,14.70
2019-03-21T23:27:09.237Z,14.13
2019-03-21T23:29:37.668Z,13.10
2019-03-21T23:32:06.640Z,10.73
2019-03-21T23:34:34.826Z,15.93
2019-03-21T23:37:02.771Z,13.40
2019-03-21T23:39:31.740Z,13.83
2019-03-21T23:41:59.717Z,13.03
2019-03-21T23:44:27.516Z,17.80
2019-03-21T23:46:55.526Z,13.43
2019-03-21T23:49:23.564Z,17.10
2019-03-21T23:51:51.400Z,17.90
2019-03-21T23:54:19.293Z,17.37
2019-03-21T23:56:47.155Z,14.43
2019-03-21T23:59:15.418Z,17.00
